Hatsu Excel — VSXV3 — position and weather

sailwx.info

Track history (hours):
 
Tides and Currents Weather Stations Pressure Air Temp Water Temp Dewpoint Dewpoint Depression Visibility Wind Speed Wind Dir Waves Ship Positions

Hatsu Excel

Last reported at 2015-May-27 11:22 UTC. Time now 2015-May-27 11:58 UTC.
Position N 22°51' E 120°01'.

Type: Cargo ship. MMSI: 235479000.

Date/timePositionNaut miles runAvg speedWind from/ knotsBaromVisibWave heightAir tempDewpointWater temp
2015-May-27 11:22N 22°51' E 120°01'1519.1
2015-May-27 10:33N 22°38' E 120°10'9 9.1
2015-May-27 09:32N 22°33' E 120°19'0 0.0
2015-May-27 08:32N 22°33' E 120°19'0 0.0
2015-May-27 07:32N 22°33' E 120°19'0 0.0
2015-May-27 06:32N 22°33' E 120°19'0 0.0
2015-May-27 05:26N 22°33' E 120°19'0 0.0
2015-May-27 04:32N 22°33' E 120°19'0 0.0
2015-May-27 03:32N 22°33' E 120°19'0 0.0
2015-May-27 02:26N 22°33' E 120°19'0 0.0
2015-May-27 01:32N 22°33' E 120°19'0 0.0
2015-May-27 00:32N 22°33' E 120°19'0 0.0
2015-May-26 23:26N 22°33' E 120°19'0 0.0
2015-May-26 22:32N 22°33' E 120°19'0 0.0
2015-May-26 21:32N 22°33' E 120°19'0 0.0
2015-May-26 20:32N 22°33' E 120°19'0 0.0
2015-May-26 19:32N 22°33' E 120°19'1 1.0
2015-May-26 18:28N 22°33' E 120°20'0 0.0
2015-May-26 17:28N 22°33' E 120°20'0 0.0
2015-May-26 16:28N 22°33' E 120°20'0 0.0
2015-May-26 15:28N 22°33' E 120°20'0 0.0
2015-May-26 14:22N 22°33' E 120°20'0 0.0
2015-May-26 13:16N 22°33' E 120°20'0 0.0
2015-May-26 10:28N 22°33' E 120°20'0 0.0
2015-May-26 09:22N 22°33' E 120°20'0 0.0
2015-May-26 07:04N 22°33' E 120°20'0 0.0
2015-May-26 06:22N 22°33' E 120°20'0 0.0
2015-May-26 05:28N 22°33' E 120°20'0 0.0
2015-May-26 04:28N 22°33' E 120°20'0 0.0
2015-May-26 03:22N 22°33' E 120°20'0 0.0
2015-May-26 02:10N 22°33' E 120°20'0 0.0
2015-May-25 23:22N 22°33' E 120°20'0 0.0
2015-May-25 22:22N 22°33' E 120°20'0 0.0
2015-May-25 19:04N 22°33' E 120°20'0 0.0
2015-May-25 18:16N 22°33' E 120°20'0 0.0
2015-May-25 17:28N 22°33' E 120°20'0 0.0
2015-May-25 16:16N 22°33' E 120°20'0 0.0
2015-May-25 15:10N 22°33' E 120°20'0 0.0
2015-May-25 14:28N 22°33' E 120°20'0 0.0
2015-May-25 13:25N 22°33' E 120°20'0 0.4
2015-May-25 12:33N 22°33' E 120°20'4 3.5
2015-May-25 11:32N 22°31' E 120°16'0 0.1
2015-May-25 10:32N 22°31' E 120°16'0 0.1
2015-May-25 09:32N 22°31' E 120°16'0 0.2
2015-May-25 08:32N 22°31' E 120°17'0 0.0
2015-May-25 07:32N 22°31' E 120°17'0 0.0
2015-May-25 06:32N 22°31' E 120°17'0 0.1
2015-May-25 05:32N 22°31' E 120°17'0 0.0
2015-May-25 04:32N 22°31' E 120°17'0 0.1
2015-May-25 03:26N 22°31' E 120°16'0 0.0
2015-May-25 02:32N 22°31' E 120°16'0 0.1
2015-May-25 01:32N 22°31' E 120°17'0 0.0
2015-May-25 00:32N 22°31' E 120°17'0 0.0
2015-May-24 23:32N 22°31' E 120°17'0 0.0
2015-May-24 22:32N 22°31' E 120°17'0 0.1
2015-May-24 21:14N 22°31' E 120°17'0 0.1
2015-May-24 20:32N 22°31' E 120°17'0 0.1
2015-May-24 19:32N 22°31' E 120°17'0 0.0
2015-May-24 18:26N 22°31' E 120°17'0 0.5
2015-May-24 17:33N 22°32' E 120°17'9 9.2
2015-May-24 16:33N 22°36' E 120°08'1313.1
2015-May-24 15:33N 22°48' E 120°02'57611.2
2015-May-22 12:04N 30°44' E 126°05'1017.4
2015-May-22 11:31N 30°51' E 126°12'3417.3
2015-May-22 09:33N 31°18' E 126°37'19115.8
2015-May-21 21:29N 33°39' E 129°10'1415.4
2015-May-21 20:33N 33°48' E 129°23'1615.0
2015-May-21 19:30N 33°59' E 129°36'1415.0
2015-May-21 18:33N 34°09' E 129°48'1615.2
2015-May-21 17:31N 34°19' E 130°03'1414.5
2015-May-21 16:33N 34°28' E 130°16'1915.2
2015-May-21 15:17N 34°42' E 130°32'1215.6
2015-May-21 14:31N 34°50' E 130°43'  
Track history (hours):
 
Tides and Currents Weather Stations Pressure Air Temp Water Temp Dewpoint Dewpoint Depression Visibility Wind Speed Wind Dir Waves Ship Positions

Hatsu Excel

Last reported at 2015-May-27 11:22 UTC. Time now 2015-May-27 11:58 UTC.
Position N 22°51' E 120°01'.

Type: Cargo ship. MMSI: 235479000.

Date/timePositionNaut miles runAvg speedWind from/ knotsBaromVisibWave heightAir tempDewpointWater temp
2015-May-27 11:22N 22°51' E 120°01'1519.1
2015-May-27 10:33N 22°38' E 120°10'9 9.1
2015-May-27 09:32N 22°33' E 120°19'0 0.0
2015-May-27 08:32N 22°33' E 120°19'0 0.0
2015-May-27 07:32N 22°33' E 120°19'0 0.0
2015-May-27 06:32N 22°33' E 120°19'0 0.0
2015-May-27 05:26N 22°33' E 120°19'0 0.0
2015-May-27 04:32N 22°33' E 120°19'0 0.0
2015-May-27 03:32N 22°33' E 120°19'0 0.0
2015-May-27 02:26N 22°33' E 120°19'0 0.0
2015-May-27 01:32N 22°33' E 120°19'0 0.0
2015-May-27 00:32N 22°33' E 120°19'0 0.0
2015-May-26 23:26N 22°33' E 120°19'0 0.0
2015-May-26 22:32N 22°33' E 120°19'0 0.0
2015-May-26 21:32N 22°33' E 120°19'0 0.0
2015-May-26 20:32N 22°33' E 120°19'0 0.0
2015-May-26 19:32N 22°33' E 120°19'1 1.0
2015-May-26 18:28N 22°33' E 120°20'0 0.0
2015-May-26 17:28N 22°33' E 120°20'0 0.0
2015-May-26 16:28N 22°33' E 120°20'0 0.0
2015-May-26 15:28N 22°33' E 120°20'0 0.0
2015-May-26 14:22N 22°33' E 120°20'0 0.0
2015-May-26 13:16N 22°33' E 120°20'0 0.0
2015-May-26 10:28N 22°33' E 120°20'0 0.0
2015-May-26 09:22N 22°33' E 120°20'0 0.0
2015-May-26 07:04N 22°33' E 120°20'0 0.0
2015-May-26 06:22N 22°33' E 120°20'0 0.0
2015-May-26 05:28N 22°33' E 120°20'0 0.0
2015-May-26 04:28N 22°33' E 120°20'0 0.0
2015-May-26 03:22N 22°33' E 120°20'0 0.0
2015-May-26 02:10N 22°33' E 120°20'0 0.0
2015-May-25 23:22N 22°33' E 120°20'0 0.0
2015-May-25 22:22N 22°33' E 120°20'0 0.0
2015-May-25 19:04N 22°33' E 120°20'0 0.0
2015-May-25 18:16N 22°33' E 120°20'0 0.0
2015-May-25 17:28N 22°33' E 120°20'0 0.0
2015-May-25 16:16N 22°33' E 120°20'0 0.0
2015-May-25 15:10N 22°33' E 120°20'0 0.0
2015-May-25 14:28N 22°33' E 120°20'0 0.0
2015-May-25 13:25N 22°33' E 120°20'0 0.4
2015-May-25 12:33N 22°33' E 120°20'4 3.5
2015-May-25 11:32N 22°31' E 120°16'0 0.1
2015-May-25 10:32N 22°31' E 120°16'0 0.1
2015-May-25 09:32N 22°31' E 120°16'0 0.2
2015-May-25 08:32N 22°31' E 120°17'0 0.0
2015-May-25 07:32N 22°31' E 120°17'0 0.0
2015-May-25 06:32N 22°31' E 120°17'0 0.1
2015-May-25 05:32N 22°31' E 120°17'0 0.0
2015-May-25 04:32N 22°31' E 120°17'0 0.1
2015-May-25 03:26N 22°31' E 120°16'0 0.0
2015-May-25 02:32N 22°31' E 120°16'0 0.1
2015-May-25 01:32N 22°31' E 120°17'0 0.0
2015-May-25 00:32N 22°31' E 120°17'0 0.0
2015-May-24 23:32N 22°31' E 120°17'0 0.0
2015-May-24 22:32N 22°31' E 120°17'0 0.1
2015-May-24 21:14N 22°31' E 120°17'0 0.1
2015-May-24 20:32N 22°31' E 120°17'0 0.1
2015-May-24 19:32N 22°31' E 120°17'0 0.0
2015-May-24 18:26N 22°31' E 120°17'0 0.5
2015-May-24 17:33N 22°32' E 120°17'9 9.2
2015-May-24 16:33N 22°36' E 120°08'1313.1
2015-May-24 15:33N 22°48' E 120°02'57611.2
2015-May-22 12:04N 30°44' E 126°05'1017.4
2015-May-22 11:31N 30°51' E 126°12'3417.3
2015-May-22 09:33N 31°18' E 126°37'19115.8
2015-May-21 21:29N 33°39' E 129°10'1415.4
2015-May-21 20:33N 33°48' E 129°23'1615.0
2015-May-21 19:30N 33°59' E 129°36'1415.0
2015-May-21 18:33N 34°09' E 129°48'1615.2
2015-May-21 17:31N 34°19' E 130°03'1414.5
2015-May-21 16:33N 34°28' E 130°16'1915.2
2015-May-21 15:17N 34°42' E 130°32'1215.6
2015-May-21 14:31N 34°50' E 130°43'  

Dump ship's entire track history